Time;durP1;ratioP1;P1;durP2;ratioP2;P2;SDS_P1;SDS_P2;PMS_P1;PMS_P2;Temp;Humidity;BMP_temperature;BMP_pressure;BME280_temperature;BME280_humidity;BME280_pressure;Samples;Min_cycle;Max_cycle;Signal;HPM_P1;HPM_P2
2021/11/17 02:28:34;;;;;;;55.40;36.17;;;128.50;2252.80;;;;;;5050384;28;20021;-77
2021/11/17 02:31:29;;;;;;;55.60;33.13;;;128.40;2252.80;;;;;;5051082;28;20033;-77
2021/11/17 02:34:26;;;;;;;51.50;31.45;;;128.40;2252.80;;;;;;5050388;28;20025;-78
2021/11/17 02:37:31;;;;;;;60.45;34.95;;;128.40;2252.80;;;;;;5058456;28;20025;-77
2021/11/17 02:40:25;;;;;;;69.13;36.78;;;128.40;2252.80;;;;;;5069908;28;20032;-77
2021/11/17 02:43:28;;;;;;;66.97;36.15;;;128.40;2252.80;;;;;;5059276;28;20431;-77
2021/11/17 02:46:29;;;;;;;58.60;34.22;;;128.30;2252.80;;;;;;5059900;28;20123;-76
2021/11/17 02:48:58;;;;;;;51.67;32.67;;;128.30;2252.80;;;;;;5049099;28;20417;-77
2021/11/17 02:51:33;;;;;;;52.45;30.73;;;128.20;2252.80;;;;;;5049113;28;20025;-78
2021/11/17 02:54:36;;;;;;;44.53;29.60;;;128.20;2252.80;;;;;;5033034;28;20040;-76
2021/11/17 02:57:16;;;;;;;43.88;27.45;;;128.20;2252.80;;;;;;5049323;28;20029;-77
2021/11/17 03:00:14;;;;;;;39.42;25.90;;;128.10;2252.80;;;;;;5032054;28;20499;-77
2021/11/17 03:03:08;;;;;;;37.97;25.17;;;128.00;2252.80;;;;;;5050688;28;20133;-76
2021/11/17 03:05:55;;;;;;;40.28;24.77;;;128.00;2252.80;;;;;;5046463;28;20096;-76
2021/11/17 03:08:58;;;;;;;43.67;25.80;;;128.00;2252.80;;;;;;5020386;28;20025;-76
2021/11/17 03:11:47;;;;;;;41.90;27.50;;;103.30;2227.20;;;;;;5036529;28;20503;-77
2021/11/17 03:14:31;;;;;;;56.35;29.35;;;103.30;2227.20;;;;;;5052975;28;20043;-76
2021/11/17 03:17:20;;;;;;;40.30;25.23;;;103.30;2227.20;;;;;;5035663;28;20116;-76
2021/11/17 03:20:20;;;;;;;39.97;25.50;;;103.30;2227.20;;;;;;4993182;28;20117;-76
2021/11/17 03:22:46;;;;;;;40.90;25.50;;;103.30;2227.20;;;;;;4976898;28;20027;-76
2021/11/17 03:25:32;;;;;;;43.92;25.60;;;103.20;2227.20;;;;;;5014974;28;20042;-76
2021/11/17 03:28:26;;;;;;;39.27;24.20;;;103.30;2227.20;;;;;;5028924;28;20030;-77
2021/11/17 03:31:07;;;;;;;38.63;24.33;;;103.20;2227.20;;;;;;5012813;28;20056;-77
2021/11/17 03:33:50;;;;;;;39.63;25.35;;;103.20;2227.20;;;;;;5012669;28;20026;-77
2021/11/17 03:36:33;;;;;;;40.58;25.33;;;103.20;2227.20;;;;;;5028937;28;20030;-77
2021/11/17 03:39:13;;;;;;;39.67;26.92;;;103.10;2227.20;;;;;;5028831;28;20025;-77
2021/11/17 03:42:07;;;;;;;38.60;25.58;;;103.10;2227.20;;;;;;4995647;28;20057;-77
2021/11/17 03:44:50;;;;;;;42.63;26.13;;;103.10;2227.20;;;;;;5029515;28;20056;-77
2021/11/17 03:47:32;;;;;;;46.65;28.45;;;103.00;2227.20;;;;;;5012679;28;20066;-76
2021/11/17 03:50:23;;;;;;;44.75;27.00;;;103.10;2227.20;;;;;;5014816;28;20045;-76
2021/11/17 03:53:11;;;;;;;44.88;26.75;;;103.00;2227.20;;;;;;5031228;28;20030;-77
2021/11/17 03:55:40;;;;;;;44.30;27.60;;;103.00;2227.20;;;;;;5016682;28;20071;-77
2021/11/17 03:58:24;;;;;;;42.67;24.95;;;103.00;2227.20;;;;;;5113215;28;20092;-77
2021/11/17 04:01:04;;;;;;;45.00;26.60;;;103.00;2227.20;;;;;;5111618;28;20053;-77
2021/11/17 04:03:55;;;;;;;48.47;29.75;;;103.00;2227.20;;;;;;5112226;28;20084;-77
2021/11/17 04:06:26;;;;;;;61.50;36.33;;;103.00;2227.20;;;;;;5077954;28;20039;-78
2021/11/17 04:09:43;;;;;;;54.67;33.67;;;103.00;2227.20;;;;;;5096379;28;20024;-77
2021/11/17 04:12:28;;;;;;;47.88;28.15;;;103.00;2227.20;;;;;;5054792;28;20032;-77
2021/11/17 04:15:32;;;;;;;47.05;27.75;;;102.90;2227.20;;;;;;5054820;28;20045;-77
2021/11/17 04:18:25;;;;;;;49.20;28.02;;;102.90;2227.20;;;;;;5057225;28;20028;-77
2021/11/17 04:21:04;;;;;;;37.53;26.35;;;102.90;2227.20;;;;;;5055028;28;20534;-76
2021/11/17 04:24:14;;;;;;;42.85;28.38;;;102.80;2227.20;;;;;;5054986;28;20040;-77
2021/11/17 04:26:54;;;;;;;51.88;30.35;;;102.70;2227.20;;;;;;5054615;28;20439;-77
2021/11/17 04:29:43;;;;;;;50.10;30.10;;;102.70;2227.20;;;;;;5054665;28;20050;-77
2021/11/17 04:32:26;;;;;;;51.60;28.60;;;102.70;2227.20;;;;;;5070939;28;20036;-77
2021/11/17 04:35:22;;;;;;;100.63;58.13;;;102.70;2227.20;;;;;;5071287;28;20029;-76
2021/11/17 04:38:12;;;;;;;82.68;49.80;;;102.70;2227.20;;;;;;5054532;28;20029;-76
2021/11/17 04:41:04;;;;;;;68.28;39.45;;;102.60;2227.20;;;;;;5070103;28;20168;-75
2021/11/17 04:44:00;;;;;;;57.70;33.35;;;102.60;2227.20;;;;;;5085094;28;20040;-77
2021/11/17 04:46:41;;;;;;;51.42;30.33;;;102.60;2227.20;;;;;;5113599;28;20030;-77
2021/11/17 04:49:12;;;;;;;48.72;28.15;;;102.60;2227.20;;;;;;5114253;28;20129;-77
2021/11/17 04:51:59;;;;;;;49.42;28.73;;;102.60;2227.20;;;;;;5113545;28;20019;-76
2021/11/17 04:54:43;;;;;;;44.15;27.73;;;102.50;2227.20;;;;;;5078302;28;20031;-76
2021/11/17 04:57:32;;;;;;;48.95;29.88;;;102.50;2227.20;;;;;;5112309;28;20398;-76
2021/11/17 05:00:06;;;;;;;46.10;28.02;;;102.50;2227.20;;;;;;5097152;28;20028;-76
2021/11/17 05:02:46;;;;;;;45.97;27.23;;;102.50;2227.20;;;;;;5094749;28;20055;-76
2021/11/17 05:05:34;;;;;;;49.67;28.25;;;102.50;2227.20;;;;;;5113126;28;20023;-76
2021/11/17 05:08:07;;;;;;;47.88;27.98;;;102.50;2227.20;;;;;;5093888;28;20036;-74
2021/11/17 05:10:45;;;;;;;52.38;30.67;;;102.40;2227.20;;;;;;5074946;28;20402;-77
2021/11/17 05:13:29;;;;;;;47.28;29.48;;;102.40;2227.20;;;;;;5111735;28;20034;-77
2021/11/17 05:16:07;;;;;;;46.13;28.42;;;102.40;2227.20;;;;;;5111990;28;20030;-75
2021/11/17 05:19:08;;;;;;;51.20;26.23;;;77.70;2227.20;;;;;;5113355;28;20420;-76
2021/11/17 05:21:40;;;;;;;40.63;25.77;;;77.70;2227.20;;;;;;5089343;28;20501;-76
2021/11/17 05:24:30;;;;;;;43.13;26.27;;;102.40;2227.20;;;;;;5074285;28;20028;-77
2021/11/17 05:27:05;;;;;;;37.75;24.55;;;77.70;2227.20;;;;;;5083575;28;20103;-76
2021/11/17 05:29:43;;;;;;;51.75;26.92;;;77.70;2227.20;;;;;;5094647;28;20022;-76
2021/11/17 05:32:41;;;;;;;40.35;25.17;;;102.40;2227.20;;;;;;5077350;28;20035;-76
2021/11/17 05:35:20;;;;;;;37.20;23.35;;;102.40;2227.20;;;;;;5094631;28;20421;-75
2021/11/17 05:38:14;;;;;;;43.60;26.27;;;102.40;2227.20;;;;;;5078335;28;20407;-76
2021/11/17 05:40:49;;;;;;;37.70;24.02;;;102.40;2227.20;;;;;;5110682;28;20027;-76
2021/11/17 05:43:39;;;;;;;40.00;23.73;;;102.40;2227.20;;;;;;5093836;28;20052;-76
2021/11/17 05:46:14;;;;;;;39.08;22.90;;;102.40;2227.20;;;;;;5110663;28;20024;-76
2021/11/17 05:48:50;;;;;;;42.28;26.27;;;102.40;2227.20;;;;;;5112589;28;20023;-76
2021/11/17 05:51:16;;;;;;;46.47;27.30;;;102.50;2227.20;;;;;;5076226;28;20032;-76
2021/11/17 05:54:06;;;;;;;44.95;26.85;;;102.40;2227.20;;;;;;5112521;28;20027;-76
2021/11/17 05:57:01;;;;;;;46.08;27.17;;;102.50;2227.20;;;;;;5092426;28;20794;-76
2021/11/17 06:00:01;;;;;;;49.50;31.17;;;102.60;2227.20;;;;;;5109491;28;20550;-76
2021/11/17 06:03:02;;;;;;;47.80;29.65;;;102.60;2227.20;;;;;;5092520;27;20412;-76
2021/11/17 06:05:28;;;;;;;43.55;27.23;;;102.60;2227.20;;;;;;5051525;28;20040;-76
2021/11/17 06:07:53;;;;;;;42.38;25.70;;;102.60;2227.20;;;;;;5049778;28;20041;-76
2021/11/17 06:10:28;;;;;;;46.35;26.27;;;102.70;2227.20;;;;;;5030262;28;20025;-76
2021/11/17 06:12:53;;;;;;;39.58;25.52;;;102.80;2227.20;;;;;;5062747;28;20490;-76
2021/11/17 06:15:20;;;;;;;44.33;25.27;;;102.80;2227.20;;;;;;5041865;28;20068;-76
2021/11/17 06:17:48;;;;;;;51.50;28.13;;;102.90;2227.20;;;;;;5032513;28;20534;-77
2021/11/17 06:20:17;;;;;;;55.22;29.65;;;103.00;2227.20;;;;;;5049590;28;20033;-76
2021/11/17 06:22:47;;;;;;;48.33;29.02;;;103.00;2227.20;;;;;;5032484;28;20487;-77
2021/11/17 06:25:14;;;;;;;51.42;29.45;;;103.00;2227.20;;;;;;5044084;28;20036;-76
2021/11/17 06:27:47;;;;;;;52.47;31.63;;;103.10;2227.20;;;;;;5052245;28;20033;-76
2021/11/17 06:30:17;;;;;;;66.63;42.25;;;103.20;2227.20;;;;;;5031791;28;20041;-75
2021/11/17 06:32:43;;;;;;;66.40;42.72;;;103.20;2227.20;;;;;;5026031;28;20036;-76
2021/11/17 06:35:10;;;;;;;70.13;40.13;;;103.30;2227.20;;;;;;5025217;28;20026;-75
2021/11/17 06:37:37;;;;;;;66.85;41.63;;;128.00;2252.80;;;;;;5024804;28;20091;-77
2021/11/17 06:40:06;;;;;;;75.20;44.28;;;128.10;2252.80;;;;;;5082564;28;20046;-77
2021/11/17 06:42:36;;;;;;;81.32;50.60;;;128.20;2252.80;;;;;;5097574;28;20071;-76
2021/11/17 06:45:09;;;;;;;93.82;58.75;;;128.30;2252.80;;;;;;5116510;27;20034;-76
2021/11/17 06:47:35;;;;;;;105.80;58.47;;;128.30;2252.80;;;;;;5098633;28;20027;-76
2021/11/17 06:50:01;;;;;;;105.40;64.43;;;128.40;2252.80;;;;;;5097363;28;20028;-75
2021/11/17 06:52:27;;;;;;;109.38;63.88;;;128.40;2252.80;;;;;;5097432;28;20371;-76
2021/11/17 06:54:52;;;;;;;123.40;75.70;;;128.50;2252.80;;;;;;5096596;28;20039;-76
2021/11/17 06:57:19;;;;;;;134.48;78.57;;;128.60;2252.80;;;;;;5097221;28;20470;-77
2021/11/17 06:59:45;;;;;;;126.72;70.25;;;128.70;2252.80;;;;;;5097360;28;20035;-76
2021/11/17 07:02:11;;;;;;;117.70;67.32;;;128.80;2252.80;;;;;;5114823;28;20047;-76
2021/11/17 07:04:37;;;;;;;115.80;63.13;;;128.90;2252.80;;;;;;5114831;28;20051;-76
2021/11/17 07:07:05;;;;;;;107.05;61.15;;;153.60;2252.80;;;;;;5096000;28;20028;-77
2021/11/17 07:09:31;;;;;;;81.97;48.53;;;153.70;2252.80;;;;;;5094876;28;20048;-76
2021/11/17 07:11:57;;;;;;;85.55;60.97;;;153.80;2252.80;;;;;;5089783;28;20051;-76
2021/11/17 07:14:23;;;;;;;63.95;45.15;;;153.90;2252.80;;;;;;5096002;28;20035;-76
2021/11/17 07:16:50;;;;;;;58.20;41.83;;;153.90;2252.80;;;;;;5115003;28;20040;-76
2021/11/17 07:19:23;;;;;;;105.40;94.13;;;153.90;2252.80;;;;;;5094775;28;20020;-76
2021/11/17 07:21:52;;;;;;;61.17;41.35;;;154.00;2252.80;;;;;;5110564;28;20055;-77
2021/11/17 07:24:18;;;;;;;58.50;36.88;;;154.00;2252.80;;;;;;5096237;28;20115;-77
2021/11/17 07:26:44;;;;;;;57.08;36.13;;;154.10;2252.80;;;;;;5096710;28;20154;-77
2021/11/17 07:29:11;;;;;;;58.08;39.20;;;154.10;2252.80;;;;;;5095604;28;20454;-77
2021/11/17 07:31:36;;;;;;;49.67;34.65;;;154.10;2252.80;;;;;;5096585;28;20115;-78
2021/11/17 07:34:02;;;;;;;53.45;35.05;;;154.20;2252.80;;;;;;5096495;28;20118;-76
2021/11/17 07:36:29;;;;;;;55.67;33.80;;;154.20;2252.80;;;;;;5096496;27;20363;-78
2021/11/17 07:38:55;;;;;;;47.10;32.92;;;154.30;2252.80;;;;;;5110756;28;20023;-77
2021/11/17 07:41:21;;;;;;;53.63;33.58;;;154.30;2252.80;;;;;;5095723;28;20490;-77
2021/11/17 07:43:46;;;;;;;66.07;36.78;;;154.40;2252.80;;;;;;5102184;27;20035;-77
2021/11/17 07:46:13;;;;;;;45.85;32.72;;;154.50;2252.80;;;;;;5119006;27;21169;-77
2021/11/17 07:48:39;;;;;;;48.90;31.85;;;179.20;2252.80;;;;;;5113371;27;20048;-76
2021/11/17 07:51:06;;;;;;;49.22;32.90;;;179.30;2252.80;;;;;;5114940;27;20058;-78
2021/11/17 07:53:34;;;;;;;55.42;34.85;;;179.40;2252.80;;;;;;5096807;28;20035;-76
2021/11/17 07:56:02;;;;;;;47.03;29.33;;;179.50;2252.80;;;;;;5096549;27;20066;-76
2021/11/17 07:58:33;;;;;;;44.03;29.35;;;179.60;2252.80;;;;;;5114008;28;20398;-76
2021/11/17 08:01:00;;;;;;;48.53;31.27;;;179.70;2252.80;;;;;;5110168;27;20034;-76
2021/11/17 08:03:37;;;;;;;48.38;32.35;;;179.80;2252.80;;;;;;5094849;27;20043;-77
2021/11/17 08:06:04;;;;;;;50.88;31.52;;;180.00;2252.80;;;;;;5111436;28;20032;-76
2021/11/17 08:08:31;;;;;;;46.78;31.55;;;180.10;2252.80;;;;;;5094104;28;20027;-74
2021/11/17 08:10:58;;;;;;;55.13;35.03;;;204.90;2252.80;;;;;;5111249;28;20031;-74
2021/11/17 08:13:25;;;;;;;58.92;35.35;;;205.10;2252.80;;;;;;5113309;28;20069;-74
2021/11/17 08:15:50;;;;;;;54.92;31.05;;;205.30;2252.80;;;;;;5110116;28;20039;-74
2021/11/17 08:18:16;;;;;;;51.85;31.20;;;205.40;2252.80;;;;;;5112024;28;20031;-74
2021/11/17 08:20:42;;;;;;;51.10;29.48;;;205.60;2252.80;;;;;;5112427;27;20027;-74
2021/11/17 08:23:08;;;;;;;44.05;30.08;;;230.40;2252.80;;;;;;5111681;28;20094;-74
2021/11/17 08:25:38;;;;;;;45.40;30.33;;;230.50;2252.80;;;;;;5113369;28;20497;-74
2021/11/17 08:28:07;;;;;;;46.17;30.92;;;230.80;2252.80;;;;;;5111406;28;20054;-75
2021/11/17 08:30:34;;;;;;;39.35;27.33;;;231.00;2252.80;;;;;;5113440;28;20024;-74
2021/11/17 08:33:01;;;;;;;46.38;30.48;;;231.30;2252.80;;;;;;5111755;28;20023;-74
2021/11/17 08:35:29;;;;;;;38.85;28.33;;;256.10;2252.80;;;;;;5113348;28;20482;-74
2021/11/17 08:37:56;;;;;;;42.38;29.50;;;256.40;2252.80;;;;;;5094582;28;20470;-74
2021/11/17 08:40:25;;;;;;;47.85;28.92;;;256.40;2252.80;;;;;;5112686;28;20031;-74
2021/11/17 08:42:51;;;;;;;40.05;28.08;;;256.50;2252.80;;;;;;5112985;28;20100;-74
2021/11/17 08:45:17;;;;;;;43.45;30.63;;;256.80;2252.80;;;;;;5095057;28;20029;-74
2021/11/17 08:47:43;;;;;;;41.30;30.17;;;256.70;2252.80;;;;;;5094838;28;20031;-74
2021/11/17 08:50:12;;;;;;;48.00;29.70;;;281.80;2278.40;;;;;;5094238;28;20130;-74
2021/11/17 08:52:38;;;;;;;48.50;29.55;;;282.20;2278.40;;;;;;5113247;28;20527;-74
2021/11/17 08:55:05;;;;;;;42.40;26.58;;;282.50;2278.40;;;;;;5113256;28;20016;-74
2021/11/17 08:57:31;;;;;;;45.95;30.98;;;307.40;2304.00;;;;;;5114571;27;20027;-74
2021/11/17 08:59:57;;;;;;;40.53;25.77;;;307.70;2304.00;;;;;;5111994;28;20367;-73
2021/11/17 09:02:23;;;;;;;35.38;24.60;;;307.80;2304.00;;;;;;5094334;28;20169;-74
2021/11/17 09:04:49;;;;;;;35.15;24.25;;;332.80;2329.60;;;;;;5112829;28;20386;-74
2021/11/17 09:07:17;;;;;;;32.22;23.55;;;332.90;2329.60;;;;;;5112841;28;20084;-74
2021/11/17 09:09:43;;;;;;;36.05;23.92;;;333.00;2329.60;;;;;;5112472;28;20030;-74
2021/11/17 09:12:09;;;;;;;33.38;23.65;;;333.20;2329.60;;;;;;5112776;28;20020;-74
2021/11/17 09:14:36;;;;;;;28.77;19.30;;;333.30;2329.60;;;;;;5119826;27;20072;-74
2021/11/17 09:17:02;;;;;;;27.02;18.30;;;333.30;2329.60;;;;;;5133571;27;20390;-74
2021/11/17 09:19:28;;;;;;;29.77;20.17;;;333.30;2329.60;;;;;;5129262;27;20051;-73
2021/11/17 09:21:54;;;;;;;29.02;21.67;;;333.50;2329.60;;;;;;5127042;27;20061;-74
2021/11/17 09:24:21;;;;;;;28.50;19.67;;;333.70;2329.60;;;;;;5132881;27;20079;-74
2021/11/17 09:26:50;;;;;;;26.95;18.95;;;333.50;2329.60;;;;;;5130595;27;20035;-73
2021/11/17 09:29:17;;;;;;;27.52;19.63;;;333.60;2329.60;;;;;;5109841;28;20012;-74
2021/11/17 09:31:46;;;;;;;31.35;21.27;;;358.40;2329.60;;;;;;5103370;28;20094;-73
2021/11/17 09:34:13;;;;;;;31.13;22.15;;;358.60;2329.60;;;;;;5103527;27;20011;-74
2021/11/17 09:36:39;;;;;;;31.25;18.95;;;358.90;2329.60;;;;;;5110347;28;20028;-74
2021/11/17 09:39:07;;;;;;;29.40;22.98;;;358.90;2329.60;;;;;;5092716;28;20091;-74
2021/11/17 09:41:40;;;;;;;41.90;24.33;;;358.90;2329.60;;;;;;5110761;28;20505;-74
2021/11/17 09:44:12;;;;;;;34.47;22.75;;;359.10;2329.60;;;;;;5113254;27;20482;-74
2021/11/17 09:46:40;;;;;;;33.00;23.50;;;384.00;2329.60;;;;;;5113987;27;20019;-74
2021/11/17 09:49:54;;;;;;;33.72;22.95;;;359.20;2329.60;;;;;;5111177;27;20022;-75
2021/11/17 09:52:33;;;;;;;39.38;25.60;;;384.20;2329.60;;;;;;5007337;28;20049;-74
2021/11/17 09:55:20;;;;;;;49.25;32.83;;;384.30;2329.60;;;;;;5007278;28;20061;-74
2021/11/17 09:57:58;;;;;;;37.05;26.42;;;384.40;2329.60;;;;;;5010864;28;20034;-73
2021/11/17 10:00:52;;;;;;;39.65;26.08;;;384.40;2329.60;;;;;;5007538;28;20080;-74
2021/11/17 10:03:46;;;;;;;37.72;25.15;;;384.40;2329.60;;;;;;5006341;28;20041;-73
2021/11/17 10:11:52;;;;;;;36.00;25.33;;;384.40;2329.60;;;;;;5007259;28;20560;-74
2021/11/17 10:14:21;;;;;;;34.20;23.83;;;384.90;2329.60;;;;;;5007735;28;20018;-74
2021/11/17 10:16:47;;;;;;;28.00;20.13;;;409.90;2355.20;;;;;;5007657;28;20036;-74
2021/11/17 10:19:23;;;;;;;30.33;22.50;;;409.60;2355.20;;;;;;5007116;28;20033;-74
2021/11/17 10:22:05;;;;;;;25.30;18.30;;;384.60;2329.60;;;;;;4990180;28;20029;-74
2021/11/17 10:24:52;;;;;;;21.08;15.23;;;384.90;2329.60;;;;;;5007853;28;20076;-74
2021/11/17 10:27:28;;;;;;;18.70;13.55;;;409.80;2355.20;;;;;;5011432;28;20496;-74
2021/11/17 10:30:15;;;;;;;21.00;14.13;;;410.20;2355.20;;;;;;5107827;28;20028;-74
2021/11/17 10:32:46;;;;;;;17.95;13.57;;;410.50;2355.20;;;;;;5109257;28;20015;-74
2021/11/17 10:35:20;;;;;;;18.98;13.88;;;410.40;2355.20;;;;;;5108144;28;20018;-74
2021/11/17 10:38:06;;;;;;;17.17;12.40;;;410.30;2355.20;;;;;;5113045;28;20055;-74
2021/11/17 10:41:00;;;;;;;13.75;11.15;;;435.20;2355.20;;;;;;5123981;28;20102;-74
2021/11/17 10:43:35;;;;;;;20.38;13.70;;;410.40;2355.20;;;;;;5125969;28;20089;-74
2021/11/17 10:46:09;;;;;;;17.05;12.32;;;435.20;2355.20;;;;;;5131065;28;20032;-74
2021/11/17 10:48:57;;;;;;;18.75;13.00;;;410.40;2355.20;;;;;;5106439;28;20020;-73
2021/11/17 10:51:34;;;;;;;22.55;13.73;;;435.40;2355.20;;;;;;5114278;27;20027;-74
2021/11/17 10:54:11;;;;;;;18.67;14.35;;;436.00;2355.20;;;;;;5116976;28;20025;-74
2021/11/17 10:56:38;;;;;;;21.40;14.95;;;460.90;2380.80;;;;;;5118103;28;20352;-73
2021/11/17 10:59:05;;;;;;;21.52;15.77;;;461.00;2380.80;;;;;;5116984;28;20154;-73
2021/11/17 11:01:45;;;;;;;18.13;12.50;;;461.30;2380.80;;;;;;5125920;28;20023;-73
2021/11/17 11:04:22;;;;;;;18.38;14.98;;;461.10;2380.80;;;;;;5124053;28;20031;-74
2021/11/17 11:07:05;;;;;;;17.67;13.70;;;461.40;2380.80;;;;;;5118996;28;20031;-74
2021/11/17 11:10:02;;;;;;;22.30;13.40;;;461.50;2380.80;;;;;;5108107;28;20043;-73
2021/11/17 11:12:30;;;;;;;12.57;10.57;;;461.30;2380.80;;;;;;5044447;28;20164;-74
2021/11/17 11:15:10;;;;;;;16.52;12.57;;;461.30;2380.80;;;;;;5042873;28;20030;-74
2021/11/17 11:18:01;;;;;;;19.55;14.10;;;461.40;2380.80;;;;;;5043418;28;20045;-74
2021/11/17 11:20:30;;;;;;;15.95;12.90;;;461.50;2380.80;;;;;;4958728;28;20041;-74
2021/11/17 11:23:05;;;;;;;18.08;12.13;;;461.10;2380.80;;;;;;4965121;28;20076;-74
2021/11/17 11:25:49;;;;;;;23.05;15.40;;;461.00;2380.80;;;;;;4965715;28;20039;-74
2021/11/17 11:28:20;;;;;;;18.88;14.45;;;435.90;2355.20;;;;;;4962247;28;20055;-74
2021/11/17 11:31:10;;;;;;;18.88;14.35;;;435.80;2355.20;;;;;;4962248;28;20035;-73
2021/11/17 11:33:50;;;;;;;20.02;13.90;;;460.80;2380.80;;;;;;4964084;28;20708;-74
2021/11/17 11:36:15;;;;;;;20.60;13.88;;;460.80;2380.80;;;;;;4964767;28;20043;-74
2021/11/17 11:38:58;;;;;;;15.63;12.48;;;461.30;2380.80;;;;;;4964883;28;20035;-74
2021/11/17 11:42:03;;;;;;;24.15;15.52;;;461.40;2380.80;;;;;;4962081;28;20049;-74
2021/11/17 11:44:35;;;;;;;19.92;14.82;;;461.00;2380.80;;;;;;4964359;28;20050;-74
2021/11/17 11:47:03;;;;;;;22.08;16.65;;;461.00;2380.80;;;;;;4959712;28;20088;-74
2021/11/17 11:49:38;;;;;;;23.67;17.63;;;461.20;2380.80;;;;;;5003323;28;20033;-74
2021/11/17 11:52:12;;;;;;;23.08;15.35;;;461.20;2380.80;;;;;;5048095;28;20037;-74
2021/11/17 11:54:56;;;;;;;17.38;13.50;;;461.30;2380.80;;;;;;5040813;28;20506;-74
2021/11/17 11:57:39;;;;;;;18.92;13.68;;;461.20;2380.80;;;;;;5082292;27;20185;-74
2021/11/17 12:00:08;;;;;;;19.65;13.57;;;461.30;2380.80;;;;;;5109259;27;20027;-74
2021/11/17 12:02:51;;;;;;;20.10;14.25;;;460.90;2380.80;;;;;;5131217;27;20028;-74
2021/11/17 12:05:36;;;;;;;20.05;15.00;;;461.20;2380.80;;;;;;5121313;27;20030;-73
2021/11/17 12:08:19;;;;;;;18.02;14.38;;;461.30;2380.80;;;;;;5127620;27;20110;-74
2021/11/17 12:10:47;;;;;;;19.00;13.82;;;461.00;2380.80;;;;;;5128197;27;20447;-73
2021/11/17 12:13:25;;;;;;;20.02;13.90;;;460.80;2380.80;;;;;;5116012;27;20063;-74
2021/11/17 12:16:07;;;;;;;34.83;19.33;;;461.20;2380.80;;;;;;5129362;27;20466;-74
2021/11/17 12:18:54;;;;;;;23.67;17.13;;;461.10;2380.80;;;;;;5119628;27;20043;-74
2021/11/17 12:21:25;;;;;;;20.70;13.60;;;461.30;2380.80;;;;;;5126356;27;20027;-73
2021/11/17 12:24:23;;;;;;;22.15;16.05;;;460.80;2380.80;;;;;;5105381;27;20056;-74
2021/11/17 12:27:03;;;;;;;21.10;14.85;;;461.10;2380.80;;;;;;5021475;28;20095;-73
2021/11/17 12:30:19;;;;;;;22.40;16.48;;;461.10;2380.80;;;;;;5021153;28;20021;-74
2021/11/17 12:33:31;;;;;;;17.20;13.75;;;461.20;2380.80;;;;;;4952064;29;20855;-74
2021/11/17 12:36:06;;;;;;;21.17;14.77;;;460.80;2380.80;;;;;;4914324;29;20547;-74
2021/11/17 12:38:35;;;;;;;18.30;13.90;;;435.90;2355.20;;;;;;4898689;29;20036;-73
2021/11/17 12:41:15;;;;;;;20.65;16.33;;;435.80;2355.20;;;;;;4916905;29;20040;-74
2021/11/17 12:44:06;;;;;;;21.40;13.75;;;436.10;2355.20;;;;;;4914122;29;20075;-74
2021/11/17 12:46:47;;;;;;;18.13;13.85;;;435.80;2355.20;;;;;;4905253;29;20539;-74
2021/11/17 12:49:14;;;;;;;17.48;14.55;;;435.70;2355.20;;;;;;4900214;29;20036;-74
2021/11/17 12:51:58;;;;;;;18.25;13.43;;;435.40;2355.20;;;;;;4900906;29;20032;-74
2021/11/17 12:54:34;;;;;;;19.17;15.20;;;435.20;2355.20;;;;;;4913339;29;20036;-74
2021/11/17 12:57:02;;;;;;;;;;;435.50;2355.20;;;;;;4900282;29;20040;-73
2021/11/17 12:59:44;;;;;;;18.65;13.93;;;435.40;2355.20;;;;;;4905384;29;19934;-74
2021/11/17 13:02:22;;;;;;;21.05;13.88;;;435.50;2355.20;;;;;;4921775;28;20408;-74
2021/11/17 13:04:51;;;;;;;19.13;13.15;;;435.30;2355.20;;;;;;4999652;28;20421;-74
2021/11/17 13:07:41;;;;;;;42.63;28.92;;;435.40;2355.20;;;;;;4979407;28;20172;-74
2021/11/17 13:10:08;;;;;;;27.63;20.00;;;435.50;2355.20;;;;;;5035740;28;20168;-74
2021/11/17 13:12:36;;;;;;;21.52;14.70;;;435.30;2355.20;;;;;;5057263;28;20067;-73
2021/11/17 13:15:05;;;;;;;23.40;16.05;;;410.50;2355.20;;;;;;5101099;27;20031;-73
2021/11/17 13:17:42;;;;;;;24.40;16.67;;;410.50;2355.20;;;;;;5118755;27;20024;-72
2021/11/17 13:20:14;;;;;;;27.60;18.88;;;410.20;2355.20;;;;;;5118456;27;20080;-72
2021/11/17 13:23:08;;;;;;;18.80;13.77;;;409.90;2355.20;;;;;;5106821;27;20114;-72
2021/11/17 13:25:54;;;;;;;19.60;13.32;;;409.80;2355.20;;;;;;5107296;27;20031;-72
2021/11/17 13:28:37;;;;;;;20.73;16.13;;;409.70;2355.20;;;;;;5123907;27;20027;-73
2021/11/17 13:31:34;;;;;;;18.40;13.70;;;409.70;2355.20;;;;;;5117443;27;20387;-73
2021/11/17 13:34:12;;;;;;;17.35;13.73;;;384.80;2329.60;;;;;;5102570;27;20072;-74
2021/11/17 13:36:53;;;;;;;21.48;15.95;;;384.90;2329.60;;;;;;5124552;27;20020;-74
2021/11/17 13:39:22;;;;;;;18.98;12.40;;;409.60;2355.20;;;;;;5107830;27;20027;-73
2021/11/17 13:41:51;;;;;;;15.25;10.32;;;384.60;2329.60;;;;;;5103220;27;20099;-73
2021/11/17 13:44:20;;;;;;;16.13;11.00;;;384.50;2329.60;;;;;;5114226;27;20031;-73
2021/11/17 13:47:14;;;;;;;16.33;12.05;;;384.10;2329.60;;;;;;5095598;27;20016;-73
2021/11/17 13:49:43;;;;;;;15.30;11.32;;;359.20;2329.60;;;;;;5108272;27;20043;-73
2021/11/17 13:52:12;;;;;;;19.95;13.65;;;358.90;2329.60;;;;;;5113942;27;20020;-73
2021/11/17 13:54:42;;;;;;;15.48;11.85;;;358.90;2329.60;;;;;;5099093;27;20015;-73
2021/11/17 13:57:10;;;;;;;23.23;15.90;;;358.80;2329.60;;;;;;5111015;27;20031;-73
2021/11/17 13:59:36;;;;;;;18.85;14.18;;;358.80;2329.60;;;;;;5126348;27;20034;-73
2021/11/17 14:02:03;;;;;;;19.45;14.52;;;358.60;2329.60;;;;;;5098057;28;20443;-73
2021/11/17 14:04:29;;;;;;;23.38;17.08;;;358.40;2329.60;;;;;;5111326;28;20039;-73
2021/11/17 14:06:57;;;;;;;26.63;20.63;;;333.70;2329.60;;;;;;5110333;28;20028;-73
2021/11/17 14:09:23;;;;;;;26.13;16.50;;;333.60;2329.60;;;;;;5111976;28;20471;-73
2021/11/17 14:11:49;;;;;;;19.75;15.52;;;333.50;2329.60;;;;;;5093266;28;20019;-73
2021/11/17 14:14:16;;;;;;;24.67;16.48;;;333.40;2329.60;;;;;;5111739;28;20034;-73
2021/11/17 14:16:42;;;;;;;24.45;17.60;;;333.30;2329.60;;;;;;5093461;28;20028;-73
2021/11/17 14:19:08;;;;;;;23.75;16.30;;;333.30;2329.60;;;;;;5120270;27;20035;-73
2021/11/17 14:21:35;;;;;;;28.42;20.30;;;333.00;2329.60;;;;;;5092297;28;20035;-73
2021/11/17 14:24:02;;;;;;;33.63;21.65;;;333.00;2329.60;;;;;;5111931;28;20057;-73
2021/11/17 14:26:28;;;;;;;29.13;21.50;;;332.80;2329.60;;;;;;5093068;28;20023;-73
2021/11/17 14:29:07;;;;;;;32.30;22.90;;;332.80;2329.60;;;;;;5093605;28;20051;-73
2021/11/17 14:31:48;;;;;;;32.00;22.45;;;308.10;2304.00;;;;;;5110821;28;20012;-73
2021/11/17 14:34:14;;;;;;;29.08;19.73;;;307.90;2304.00;;;;;;5111301;28;20119;-73
2021/11/17 14:36:53;;;;;;;28.48;19.30;;;307.80;2304.00;;;;;;5110278;28;20043;-73
2021/11/17 14:39:21;;;;;;;33.60;20.73;;;307.70;2304.00;;;;;;5092674;28;20023;-73
2021/11/17 14:41:47;;;;;;;31.85;21.58;;;307.70;2304.00;;;;;;5109151;28;20046;-73
2021/11/17 14:44:14;;;;;;;36.72;25.55;;;307.60;2304.00;;;;;;5117265;28;20035;-75
2021/11/17 14:46:42;;;;;;;40.00;23.10;;;307.50;2304.00;;;;;;5109833;28;20638;-74
2021/11/17 14:49:09;;;;;;;38.53;28.17;;;307.40;2304.00;;;;;;5101973;28;20470;-74
2021/11/17 14:51:35;;;;;;;51.00;38.03;;;307.30;2304.00;;;;;;5092491;28;20073;-74
2021/11/17 14:54:01;;;;;;;49.20;31.75;;;307.20;2304.00;;;;;;5086704;28;20383;-74
2021/11/17 14:56:27;;;;;;;52.40;34.58;;;282.50;2278.40;;;;;;5092241;28;20016;-74
2021/11/17 14:58:53;;;;;;;49.15;34.33;;;282.30;2278.40;;;;;;5096104;28;20805;-74
2021/11/17 15:01:25;;;;;;;45.72;33.25;;;282.20;2278.40;;;;;;5109553;28;20023;-74
2021/11/17 15:03:53;;;;;;;54.80;34.70;;;282.10;2278.40;;;;;;5113515;27;20375;-75
2021/11/17 15:06:20;;;;;;;47.30;29.30;;;282.00;2278.40;;;;;;5112333;28;20028;-74
2021/11/17 15:08:47;;;;;;;49.42;30.63;;;281.90;2278.40;;;;;;5114818;28;20145;-74
2021/11/17 15:11:13;;;;;;;47.67;28.73;;;281.80;2278.40;;;;;;5114871;28;20114;-74
2021/11/17 15:13:39;;;;;;;50.25;30.90;;;281.70;2278.40;;;;;;5115780;27;20526;-74
2021/11/17 15:16:09;;;;;;;54.40;31.88;;;281.70;2278.40;;;;;;5122205;27;20054;-74